CheckWX is a tool to help pilots better visualize weather data.  It is not intended as a substitute for an official pre-flight weather briefing.

08:12:41 UTC

CZFA METAR
Faro Airport
Faro, Canada
Current

10 hours ago

CZFA 222200Z 12013G21KT 30SM BKN040 OVC060 07/M01 A2919 RMK SC6SC2 SLP913 DENSITY ALT 2900FT
Observed
Apr-22 @ 22:00 UTC
Wind
  • 120° at 13 KTS
  • Gusting to 21 KTS
Visibility
30 SM
Flight Rules
VFR
Cloud Levels
  • Broken at 4,000' AGL
  • Overcast at 6,000' AGL
Temperature
C / 45°F
Dewpoint
-1°C / 30°F
Humidity
57%
Altimeter
29.19" Hg
Pressure
988.52 hPa
Previous

11 hours ago

CZFA 222100Z 11013G21KT 30SM FEW040 SCT060 BKN110 06/M02 A2921 RMK SC2SC2AC3 SLP919 DENSITY ALT 2700FT
Observed
Apr-22 @ 21:00 UTC
Wind
  • 110° at 13 KTS
  • Gusting to 21 KTS
Visibility
30 SM
Flight Rules
VFR
Cloud Levels
  • Few at 4,000' AGL
  • Scattered at 6,000' AGL
  • Broken at 11,000' AGL
Temperature
C / 43°F
Dewpoint
-2°C / 28°F
Humidity
57%
Altimeter
29.21" Hg
Pressure
989.12 hPa
Previous

12 hours ago

CZFA 222000Z 12011G23KT 30SM VCSH SCT040 BKN055 OVC085 05/M02 A2922 RMK SC3SC2AS3 SLP924 DENSITY ALT 2600FT
Observed
Apr-22 @ 20:00 UTC
Wind
  • 120° at 11 KTS
  • Gusting to 23 KTS
Visibility
30 SM
Flight Rules
VFR
Cloud Levels
  • Scattered at 4,000' AGL
  • Broken at 5,500' AGL
  • Overcast at 8,500' AGL
Temperature
C / 41°F
Dewpoint
-2°C / 28°F
Humidity
61%
Altimeter
29.22" Hg
Pressure
989.52 hPa